Time;durP1;ratioP1;P1;durP2;ratioP2;P2;SDS_P1;SDS_P2;PMS_P1;PMS_P2;Temp;Humidity;BMP_temperature;BMP_pressure;BME280_temperature;BME280_humidity;BME280_pressure;Samples;Min_cycle;Max_cycle;Signal;HPM_P1;HPM_P2
2021/09/29 00:01:42;;;;;;;10.63;7.80;;;;;;;15.21;75.58;100142.00;5005929;28;20026;-71
2021/09/29 00:04:07;;;;;;;10.43;8.25;;;;;;;15.16;76.27;100143.88;5012307;28;20457;-71
2021/09/29 00:06:33;;;;;;;9.70;8.73;;;;;;;15.15;76.55;100147.03;5013530;28;20029;-71
2021/09/29 00:08:58;;;;;;;11.13;8.60;;;;;;;15.01;77.13;100151.00;5012038;28;20026;-71
2021/09/29 00:11:24;;;;;;;12.93;8.95;;;;;;;15.08;77.08;100147.63;5010648;28;20153;-71
2021/09/29 00:13:49;;;;;;;12.07;9.02;;;;;;;15.07;77.18;100147.97;5013159;28;20077;-71
2021/09/29 00:16:15;;;;;;;12.00;8.80;;;;;;;15.06;77.26;100143.50;5014272;28;20140;-71
2021/09/29 00:18:41;;;;;;;14.15;8.70;;;;;;;15.16;77.72;100155.16;5009392;28;20115;-71
2021/09/29 00:21:07;;;;;;;12.07;9.82;;;;;;;15.20;77.74;100157.28;5007595;28;20042;-71
2021/09/29 00:23:33;;;;;;;12.05;9.70;;;;;;;15.24;78.71;100161.03;5012492;28;20048;-71
2021/09/29 00:25:59;;;;;;;10.93;9.40;;;;;;;15.19;77.92;100159.25;5010137;28;20179;-71
2021/09/29 00:28:25;;;;;;;13.50;9.68;;;;;;;15.06;78.45;100158.41;5011577;28;20028;-71
2021/09/29 00:30:51;;;;;;;13.82;9.73;;;;;;;15.18;78.95;100159.63;5007320;28;20112;-71
2021/09/29 00:33:18;;;;;;;12.73;10.13;;;;;;;15.16;79.14;100154.31;5010265;28;20045;-71
2021/09/29 00:35:44;;;;;;;12.15;10.10;;;;;;;15.21;78.72;100161.72;5019826;28;20115;-71
2021/09/29 00:38:09;;;;;;;13.93;9.80;;;;;;;15.17;78.23;100155.97;5009159;28;20480;-71
2021/09/29 00:40:35;;;;;;;16.48;9.15;;;;;;;15.33;77.71;100155.31;5011962;28;20451;-71
2021/09/29 00:43:01;;;;;;;13.13;9.30;;;;;;;15.41;77.18;100148.72;5011461;28;20038;-71
2021/09/29 00:45:29;;;;;;;15.88;10.02;;;;;;;15.49;76.94;100156.25;5013832;28;20026;-71
2021/09/29 00:47:55;;;;;;;15.13;9.55;;;;;;;15.37;77.32;100156.22;5021489;28;20025;-71
2021/09/29 00:50:20;;;;;;;12.70;10.27;;;;;;;15.37;77.93;100162.69;5001185;28;20033;-71
2021/09/29 00:52:46;;;;;;;12.15;9.43;;;;;;;15.33;78.83;100156.09;5002720;28;20030;-71
2021/09/29 00:55:14;;;;;;;10.82;9.02;;;;;;;15.36;78.41;100157.41;5011379;28;20021;-71
2021/09/29 00:57:41;;;;;;;12.25;9.65;;;;;;;15.51;77.91;100153.09;5011119;28;20401;-71
2021/09/29 01:00:08;;;;;;;15.63;10.25;;;;;;;15.48;77.42;100156.59;5009261;28;20042;-71
2021/09/29 01:02:34;;;;;;;11.60;9.68;;;;;;;15.32;78.75;100153.63;5010171;28;20372;-71
2021/09/29 01:05:00;;;;;;;15.82;9.80;;;;;;;15.38;77.58;100155.06;5012793;28;20029;-71
2021/09/29 01:07:46;;;;;;;11.50;9.98;;;;;;;15.35;77.16;100155.78;5019466;28;20029;-71
2021/09/29 01:10:26;;;;;;;16.10;10.13;;;;;;;15.58;76.30;100161.75;5016606;28;20030;-71
2021/09/29 01:13:18;;;;;;;10.95;9.25;;;;;;;15.39;77.24;100160.34;5016845;28;20102;-71
2021/09/29 01:15:56;;;;;;;13.57;10.52;;;;;;;15.24;78.61;100158.22;5006400;28;20030;-71
2021/09/29 01:18:24;;;;;;;12.88;11.45;;;;;;;15.11;78.83;100160.19;5010661;28;20022;-71
2021/09/29 01:21:03;;;;;;;16.00;11.65;;;;;;;15.03;79.01;100159.13;5012081;28;20022;-71
2021/09/29 01:23:49;;;;;;;22.73;12.18;;;;;;;15.07;78.27;100162.03;5008557;28;20014;-71
2021/09/29 01:26:18;;;;;;;14.75;10.80;;;;;;;14.95;79.49;100162.84;5011910;28;20053;-71
2021/09/29 01:28:51;;;;;;;17.55;12.75;;;;;;;14.92;79.53;100166.38;5015770;28;20045;-71
2021/09/29 01:31:18;;;;;;;15.25;11.82;;;;;;;14.87;80.22;100165.41;5009608;28;20026;-71
2021/09/29 01:33:44;;;;;;;16.27;11.82;;;;;;;14.99;80.70;100160.97;5008323;28;20083;-71
2021/09/29 01:36:11;;;;;;;14.18;11.23;;;;;;;15.06;78.54;100160.41;5006497;28;20049;-71
2021/09/29 01:38:39;;;;;;;14.10;10.50;;;;;;;14.92;79.34;100158.72;5012532;28;20026;-71
2021/09/29 01:41:05;;;;;;;21.35;11.30;;;;;;;15.02;79.97;100165.91;5010492;28;20028;-71
2021/09/29 01:43:32;;;;;;;16.55;12.25;;;;;;;14.92;79.37;100164.38;5003093;28;20053;-71
2021/09/29 01:45:58;;;;;;;15.18;12.07;;;;;;;14.98;80.31;100165.81;5005900;28;20385;-71
2021/09/29 01:48:24;;;;;;;13.23;11.05;;;;;;;14.99;79.56;100156.19;5004441;28;20022;-71
2021/09/29 01:50:53;;;;;;;19.27;12.43;;;;;;;14.88;79.94;100160.59;5000145;28;20034;-71
2021/09/29 01:53:21;;;;;;;13.60;12.20;;;;;;;14.90;80.22;100175.16;5011035;28;20061;-71
2021/09/29 01:55:46;;;;;;;19.55;12.80;;;;;;;14.96;80.11;100168.16;5007805;28;20442;-71
2021/09/29 01:58:13;;;;;;;21.38;13.15;;;;;;;14.94;79.98;100167.66;5005172;28;20195;-71
2021/09/29 02:00:43;;;;;;;19.92;14.07;;;;;;;14.86;80.17;100169.41;5015051;28;20487;-71
2021/09/29 02:03:09;;;;;;;16.60;13.40;;;;;;;14.88;79.46;100169.88;4999461;28;20029;-71
2021/09/29 02:05:35;;;;;;;17.55;12.55;;;;;;;14.97;80.30;100160.50;5016757;28;20033;-71
2021/09/29 02:08:06;;;;;;;15.50;11.77;;;;;;;15.09;78.99;100157.72;5027622;28;20032;-71
2021/09/29 02:10:31;;;;;;;;;;;;;;;15.10;78.76;100164.19;5024908;28;20036;-71
2021/09/29 02:12:57;;;;;;;17.40;11.90;;;;;;;15.10;78.74;100162.19;5022478;28;19913;-71
2021/09/29 02:15:23;;;;;;;17.80;11.70;;;;;;;15.17;78.98;100161.59;5026424;28;20060;-71
2021/09/29 02:17:50;;;;;;;19.00;11.73;;;;;;;15.18;78.54;100168.06;5015901;28;20030;-71
2021/09/29 02:20:16;;;;;;;15.15;10.63;;;;;;;15.12;79.27;100167.47;5026176;28;20025;-71
2021/09/29 02:22:41;;;;;;;15.68;10.68;;;;;;;15.05;78.86;100170.03;5021606;28;20013;-71
2021/09/29 02:25:09;;;;;;;21.23;10.32;;;;;;;15.04;79.32;100174.03;5010575;28;20018;-71
2021/09/29 02:27:34;;;;;;;20.60;11.63;;;;;;;14.95;80.01;100174.94;5010174;28;20470;-71
2021/09/29 02:30:00;;;;;;;13.73;11.63;;;;;;;15.14;79.83;100180.03;5010630;28;20084;-71
2021/09/29 02:32:26;;;;;;;15.48;10.90;;;;;;;15.16;79.01;100174.03;5006488;28;20036;-71
2021/09/29 02:34:51;;;;;;;14.85;11.38;;;;;;;15.21;78.57;100181.47;5006146;28;20099;-71
2021/09/29 02:37:17;;;;;;;14.15;11.70;;;;;;;15.09;80.08;100182.25;5006381;28;20632;-71
2021/09/29 02:39:42;;;;;;;18.85;12.70;;;;;;;15.13;79.55;100177.56;5017331;28;20140;-71
2021/09/29 02:42:08;;;;;;;18.75;12.70;;;;;;;15.08;80.15;100183.41;5008154;28;20096;-71
2021/09/29 02:44:33;;;;;;;19.67;12.30;;;;;;;14.90;80.05;100185.59;5018849;28;20029;-71
2021/09/29 02:46:59;;;;;;;15.13;11.55;;;;;;;15.00;80.46;100180.34;5012877;28;20025;-71
2021/09/29 02:49:25;;;;;;;15.32;11.30;;;;;;;15.18;79.65;100184.97;5020462;28;20033;-71
2021/09/29 02:51:50;;;;;;;16.00;12.07;;;;;;;15.26;79.02;100187.69;5019298;28;20029;-71
2021/09/29 02:54:16;;;;;;;13.73;10.35;;;;;;;15.21;78.71;100187.94;5019692;28;20138;-71
2021/09/29 02:56:41;;;;;;;16.02;10.85;;;;;;;15.19;79.42;100181.00;5020412;28;20037;-71
2021/09/29 02:59:09;;;;;;;16.05;10.70;;;;;;;15.06;78.98;100182.94;5018337;28;20373;-71
2021/09/29 03:01:39;;;;;;;15.35;10.93;;;;;;;15.00;78.68;100191.63;5017400;28;20083;-71
2021/09/29 03:04:05;;;;;;;12.88;9.93;;;;;;;15.06;78.96;100188.56;5005675;28;20048;-71
2021/09/29 03:06:30;;;;;;;16.63;11.40;;;;;;;14.96;79.29;100184.22;5011044;28;20030;-71
2021/09/29 03:08:56;;;;;;;17.95;10.38;;;;;;;14.99;79.88;100184.34;5014160;28;20057;-72
2021/09/29 03:11:21;;;;;;;15.32;11.25;;;;;;;14.93;80.53;100190.56;5013536;28;20554;-72
2021/09/29 03:13:47;;;;;;;14.13;10.80;;;;;;;14.94;79.74;100192.19;5002653;28;20040;-72
2021/09/29 03:16:14;;;;;;;15.68;12.52;;;;;;;14.92;79.36;100194.53;5015940;28;20029;-72
2021/09/29 03:18:40;;;;;;;28.40;11.35;;;;;;;14.92;79.49;100194.53;5014248;28;20026;-72
2021/09/29 03:21:06;;;;;;;18.40;11.00;;;;;;;14.86;80.57;100202.38;5012788;28;20018;-72
2021/09/29 03:23:31;;;;;;;22.25;11.10;;;;;;;14.93;80.13;100193.38;5014265;28;20048;-72
2021/09/29 03:25:57;;;;;;;17.70;10.77;;;;;;;14.83;80.22;100197.41;5014229;28;20084;-72
2021/09/29 03:28:23;;;;;;;13.18;10.93;;;;;;;14.93;79.66;100194.19;5014246;28;20026;-72
2021/09/29 03:30:49;;;;;;;15.88;11.35;;;;;;;14.98;79.34;100187.50;5013807;28;20033;-72
2021/09/29 03:33:15;;;;;;;13.43;10.88;;;;;;;15.02;79.38;100189.28;5013685;28;20030;-72
2021/09/29 03:35:40;;;;;;;12.70;10.05;;;;;;;15.05;78.85;100192.56;5013958;28;20030;-72
2021/09/29 03:38:06;;;;;;;14.50;9.50;;;;;;;15.18;78.36;100191.41;5013516;28;20025;-72
2021/09/29 03:40:31;;;;;;;12.80;9.68;;;;;;;15.18;78.15;100193.44;5012589;28;20650;-72
2021/09/29 03:42:57;;;;;;;15.95;9.73;;;;;;;15.22;77.77;100191.56;5010721;28;20121;-72
2021/09/29 03:45:23;;;;;;;13.38;9.43;;;;;;;15.29;77.38;100192.63;5013979;28;20025;-72
2021/09/29 03:47:48;;;;;;;12.43;9.38;;;;;;;15.24;77.49;100194.84;5009657;28;20023;-72
2021/09/29 03:50:14;;;;;;;13.35;9.70;;;;;;;15.24;77.72;100195.69;5005277;28;20017;-72
2021/09/29 03:52:40;;;;;;;12.68;9.55;;;;;;;15.10;77.95;100200.81;5013604;28;20091;-72
2021/09/29 03:55:07;;;;;;;14.55;10.65;;;;;;;15.19;77.84;100198.69;5013346;28;20033;-72
2021/09/29 03:57:37;;;;;;;12.38;10.05;;;;;;;15.09;78.06;100199.97;5013690;28;20038;-72
2021/09/29 04:00:09;;;;;;;12.43;8.90;;;;;;;15.24;77.25;100200.47;5012635;28;20036;-72
2021/09/29 04:02:36;;;;;;;11.23;8.32;;;;;;;15.28;76.97;100202.25;5015229;28;20021;-72
2021/09/29 04:05:02;;;;;;;12.18;9.38;;;;;;;15.30;76.79;100204.72;5020080;28;20056;-72
2021/09/29 04:07:28;;;;;;;13.30;10.50;;;;;;;15.13;77.45;100197.28;5020229;28;20046;-72
2021/09/29 04:09:53;;;;;;;12.18;10.68;;;;;;;15.16;77.14;100203.06;5025924;28;20060;-72
2021/09/29 04:12:21;;;;;;;17.10;12.68;;;;;;;15.17;76.54;100201.03;5015298;28;20030;-72
2021/09/29 04:14:47;;;;;;;22.30;14.20;;;;;;;15.07;77.16;100204.31;5023069;28;20491;-72
2021/09/29 04:17:13;;;;;;;15.57;13.80;;;;;;;14.97;77.43;100209.22;5021704;28;20026;-72
2021/09/29 04:19:38;;;;;;;20.85;15.70;;;;;;;14.95;77.44;100210.75;5022283;28;20084;-72
2021/09/29 04:22:10;;;;;;;22.35;16.08;;;;;;;14.91;77.50;100216.22;5020291;28;20042;-72
2021/09/29 04:24:39;;;;;;;23.15;17.70;;;;;;;14.85;77.57;100212.81;5013229;28;20017;-72
2021/09/29 04:27:06;;;;;;;22.42;17.02;;;;;;;14.79;78.51;100211.41;5013232;28;20018;-72
2021/09/29 04:29:32;;;;;;;22.38;18.50;;;;;;;14.87;78.41;100210.47;5012708;28;20472;-72
2021/09/29 04:31:57;;;;;;;22.73;19.00;;;;;;;14.85;78.39;100210.00;5012621;28;20087;-72
2021/09/29 04:34:23;;;;;;;27.55;19.17;;;;;;;14.84;78.63;100207.50;5012980;28;20029;-72
2021/09/29 04:36:49;;;;;;;27.45;20.50;;;;;;;14.72;78.60;100211.94;5011847;28;20072;-72
2021/09/29 04:39:14;;;;;;;26.90;19.35;;;;;;;14.80;78.69;100215.84;5013208;28;20030;-72
2021/09/29 04:41:40;;;;;;;27.33;20.60;;;;;;;14.80;78.43;100215.00;5011508;28;20100;-72
2021/09/29 04:44:07;;;;;;;23.73;19.40;;;;;;;14.74;78.56;100211.59;5011576;28;20409;-72
2021/09/29 04:46:32;;;;;;;29.58;20.00;;;;;;;14.69;78.92;100206.97;5010139;28;20032;-72
2021/09/29 04:48:58;;;;;;;33.42;20.90;;;;;;;14.60;78.89;100209.84;5006111;28;20026;-72
2021/09/29 04:51:23;;;;;;;28.10;20.40;;;;;;;14.74;78.38;100211.59;5012187;28;20022;-72
2021/09/29 04:53:49;;;;;;;32.25;20.20;;;;;;;14.50;78.81;100215.09;5011267;28;20048;-71
2021/09/29 04:56:15;;;;;;;27.77;20.15;;;;;;;14.37;79.32;100209.41;5012646;28;20022;-71
2021/09/29 04:58:41;;;;;;;26.55;20.25;;;;;;;14.53;78.82;100205.97;5010480;28;20401;-71
2021/09/29 05:01:06;;;;;;;26.98;19.85;;;;;;;14.53;78.83;100214.41;5012008;28;20029;-71
2021/09/29 05:03:33;;;;;;;30.10;20.50;;;;;;;14.56;78.75;100211.72;5003702;28;20424;-71
2021/09/29 05:05:59;;;;;;;26.33;19.75;;;;;;;14.50;78.61;100212.28;5008718;28;20497;-71
2021/09/29 05:08:28;;;;;;;30.42;20.55;;;;;;;14.41;79.56;100215.97;5010738;28;20033;-71
2021/09/29 05:11:02;;;;;;;26.25;20.17;;;;;;;14.50;79.47;100217.91;5011570;28;20033;-71
2021/09/29 05:13:30;;;;;;;28.95;19.60;;;;;;;14.31;79.37;100228.47;5010800;28;20053;-71
2021/09/29 05:15:57;;;;;;;31.92;21.45;;;;;;;14.30;80.07;100226.00;5006947;28;20384;-71
2021/09/29 05:18:22;;;;;;;33.90;22.25;;;;;;;14.37;80.19;100231.06;5011690;28;20113;-71
2021/09/29 05:20:48;;;;;;;31.83;22.45;;;;;;;14.41;80.81;100232.03;5006077;28;20205;-71
2021/09/29 05:23:14;;;;;;;28.52;21.50;;;;;;;14.38;80.83;100232.72;5011502;28;20021;-71
2021/09/29 05:25:40;;;;;;;32.10;22.70;;;;;;;14.41;81.34;100226.41;5010399;28;20053;-71
2021/09/29 05:28:12;;;;;;;30.48;21.20;;;;;;;14.46;80.95;100229.81;5011506;28;20081;-71
2021/09/29 05:30:37;;;;;;;30.17;20.55;;;;;;;14.66;79.86;100235.81;5008456;28;20026;-71
2021/09/29 05:33:03;;;;;;;30.90;21.50;;;;;;;14.68;79.47;100236.28;5000130;28;20036;-71
2021/09/29 05:35:29;;;;;;;31.08;22.92;;;;;;;14.62;79.21;100239.66;5008286;28;20028;-71
2021/09/29 05:37:55;;;;;;;28.50;20.23;;;;;;;14.74;79.35;100239.75;5009320;28;20022;-72
2021/09/29 05:40:20;;;;;;;27.27;20.30;;;;;;;14.78;78.77;100245.50;5007843;28;20408;-71
2021/09/29 05:42:46;;;;;;;26.08;20.65;;;;;;;14.73;79.06;100247.38;5010398;28;20053;-72
2021/09/29 05:45:11;;;;;;;31.35;21.23;;;;;;;14.73;79.37;100250.19;5011775;28;20025;-73
2021/09/29 05:47:37;;;;;;;33.22;21.27;;;;;;;14.79;78.68;100249.97;5021659;28;20026;-73
2021/09/29 05:50:07;;;;;;;26.80;19.75;;;;;;;14.86;78.47;100250.25;5029361;28;20032;-73
2021/09/29 05:52:32;;;;;;;27.48;20.30;;;;;;;14.87;78.08;100247.06;5003170;28;20453;-73
2021/09/29 05:54:58;;;;;;;29.73;21.92;;;;;;;14.98;77.89;100255.09;5003665;28;20103;-73
2021/09/29 05:57:24;;;;;;;28.00;21.90;;;;;;;15.07;77.68;100261.47;5003644;28;20029;-75
2021/09/29 05:59:50;;;;;;;32.78;21.83;;;;;;;15.12;77.94;100252.81;5010741;28;20030;-73
2021/09/29 06:02:16;;;;;;;28.48;20.25;;;;;;;15.04;78.14;100266.97;5008702;28;20033;-72
2021/09/29 06:04:42;;;;;;;30.40;21.45;;;;;;;15.02;78.32;100268.16;5009775;28;20029;-71
2021/09/29 06:07:10;;;;;;;40.63;21.17;;;;;;;15.05;78.51;100266.66;4999708;28;20048;-71
2021/09/29 06:09:40;;;;;;;36.58;20.60;;;;;;;15.02;78.31;100268.16;5009743;28;20033;-72
2021/09/29 06:12:07;;;;;;;30.70;21.52;;;;;;;15.05;78.60;100268.63;5006350;28;20026;-74
2021/09/29 06:14:33;;;;;;;34.58;22.75;;;;;;;15.02;78.67;100267.31;5001414;28;20038;-72
2021/09/29 06:17:11;;;;;;;29.77;21.88;;;;;;;14.95;78.32;100272.72;5005843;28;20048;-71
2021/09/29 06:19:36;;;;;;;27.02;20.13;;;;;;;15.03;78.45;100274.63;5002454;28;20022;-71
2021/09/29 06:22:02;;;;;;;27.05;18.65;;;;;;;15.09;77.15;100273.22;5009550;28;20121;-71
2021/09/29 06:24:28;;;;;;;28.92;18.67;;;;;;;15.06;76.83;100275.91;5010697;28;20052;-70
2021/09/29 06:26:54;;;;;;;25.27;19.77;;;;;;;14.86;77.88;100275.59;5000098;28;20057;-72
2021/09/29 06:29:20;;;;;;;28.70;19.58;;;;;;;14.88;78.27;100279.69;5010110;28;20048;-74
2021/09/29 06:31:46;;;;;;;30.38;20.20;;;;;;;14.96;77.98;100279.97;5003842;28;20036;-71
2021/09/29 06:34:11;;;;;;;36.83;18.63;;;;;;;15.10;77.13;100286.16;4999522;28;20026;-71
2021/09/29 06:36:37;;;;;;;30.38;18.77;;;;;;;15.12;77.06;100283.00;5010745;28;20053;-73
2021/09/29 06:39:02;;;;;;;27.70;19.25;;;;;;;14.96;77.30;100286.44;5010686;28;20796;-74
2021/09/29 06:41:28;;;;;;;30.10;19.85;;;;;;;14.88;78.10;100293.78;5008727;28;20022;-73
2021/09/29 06:43:53;;;;;;;31.25;19.30;;;;;;;15.01;78.13;100285.41;5006873;28;20046;-74
2021/09/29 06:46:19;;;;;;;26.20;20.13;;;;;;;14.98;77.75;100295.38;5007919;28;20084;-74
2021/09/29 06:48:44;;;;;;;28.20;19.52;;;;;;;14.98;77.50;100288.91;5001189;28;20049;-73
2021/09/29 06:51:10;;;;;;;30.58;18.38;;;;;;;15.03;77.64;100299.97;5003680;28;20049;-74
2021/09/29 06:53:36;;;;;;;24.35;17.55;;;;;;;14.99;77.80;100299.84;5005206;28;20033;-74
2021/09/29 06:56:05;;;;;;;26.63;17.30;;;;;;;14.96;77.76;100292.09;5005072;28;20037;-73
2021/09/29 06:58:31;;;;;;;23.52;17.60;;;;;;;14.92;77.99;100305.19;5005134;28;20481;-73
2021/09/29 07:00:56;;;;;;;22.73;18.08;;;;;;;14.91;77.66;100297.09;5002154;28;20138;-73
2021/09/29 07:03:22;;;;;;;27.23;19.52;;;;;;;14.84;78.41;100294.81;4999354;28;20087;-74
2021/09/29 07:05:48;;;;;;;23.92;18.90;;;;;;;14.77;78.80;100298.19;5001428;28;20025;-72
2021/09/29 07:08:14;;;;;;;21.35;18.00;;;;;;;14.87;78.36;100305.41;5001760;28;20018;-72
2021/09/29 07:10:39;;;;;;;27.25;18.02;;;;;;;14.93;77.98;100309.66;5010402;28;20099;-73
2021/09/29 07:13:05;;;;;;;26.85;17.58;;;;;;;15.00;78.04;100309.94;5010680;28;20029;-73
2021/09/29 07:15:31;;;;;;;22.05;16.67;;;;;;;15.00;77.30;100315.56;5010497;28;20526;-73
2021/09/29 07:18:00;;;;;;;18.65;14.88;;;;;;;15.01;76.72;100320.03;5008747;28;20022;-72
2021/09/29 07:20:27;;;;;;;23.83;16.52;;;;;;;15.07;76.83;100320.66;5000116;28;20559;-72
2021/09/29 07:22:54;;;;;;;20.13;16.95;;;;;;;15.03;77.11;100314.06;5009691;28;20021;-73
2021/09/29 07:25:20;;;;;;;22.77;16.05;;;;;;;15.01;76.79;100317.22;5010856;28;20065;-73
2021/09/29 07:27:46;;;;;;;21.85;17.50;;;;;;;15.02;77.16;100306.75;5010655;28;20044;-73
2021/09/29 07:30:11;;;;;;;24.17;16.98;;;;;;;15.01;77.36;100308.75;5007277;28;20030;-72
2021/09/29 07:32:37;;;;;;;21.52;16.90;;;;;;;15.22;76.87;100302.28;5008740;28;20021;-73
2021/09/29 07:35:03;;;;;;;32.47;18.25;;;;;;;15.20;76.48;100301.78;5009582;28;20088;-72
2021/09/29 07:37:28;;;;;;;21.70;17.20;;;;;;;15.20;77.28;100313.06;5006581;28;20041;-71
2021/09/29 07:39:54;;;;;;;21.60;15.45;;;;;;;15.21;76.66;100306.28;5011982;28;20034;-71
2021/09/29 07:42:19;;;;;;;18.60;15.48;;;;;;;15.23;76.38;100314.38;5006478;28;20050;-72
2021/09/29 07:44:45;;;;;;;23.48;16.73;;;;;;;15.27;76.25;100318.97;5007609;28;20029;-72
2021/09/29 07:47:10;;;;;;;21.98;15.68;;;;;;;15.36;75.42;100321.69;5001846;28;20022;-73
2021/09/29 07:49:36;;;;;;;23.33;15.48;;;;;;;15.32;75.39;100320.75;5005158;28;20032;-72
2021/09/29 07:52:02;;;;;;;19.70;15.25;;;;;;;15.22;75.80;100319.19;5007831;28;20030;-71
2021/09/29 07:54:28;;;;;;;22.63;16.65;;;;;;;15.29;76.22;100327.91;5000118;28;20076;-73
2021/09/29 07:56:54;;;;;;;22.98;16.77;;;;;;;15.30;76.54;100312.63;5006154;28;20033;-72
2021/09/29 07:59:20;;;;;;;25.90;17.45;;;;;;;15.41;75.38;100323.47;4999158;28;20034;-72
2021/09/29 08:01:46;;;;;;;20.80;15.90;;;;;;;15.47;75.32;100327.72;5004640;28;20030;-72
2021/09/29 08:04:11;;;;;;;21.67;16.83;;;;;;;15.42;75.52;100325.97;5006380;28;21598;-72
2021/09/29 08:12:33;;;;;;;26.63;15.93;;;;;;;15.54;75.51;100322.34;5026637;28;20042;-71
2021/09/29 08:14:58;;;;;;;24.58;16.40;;;;;;;15.63;75.60;100332.72;5029475;28;20565;-71
2021/09/29 08:17:24;;;;;;;19.55;15.63;;;;;;;15.58;74.81;100328.94;5033513;28;20051;-71
2021/09/29 08:19:50;;;;;;;15.65;13.68;;;;;;;15.64;75.00;100328.72;5031536;28;20030;-71
2021/09/29 08:22:16;;;;;;;22.63;15.68;;;;;;;15.80;74.68;100328.88;5033825;28;20479;-73
2021/09/29 08:35:13;;;;;;;27.85;20.80;;;;;;;15.65;75.40;100330.34;5033661;28;20064;-71
2021/09/29 08:37:42;;;;;;;27.77;17.70;;;;;;;15.81;74.70;100331.34;5033208;28;20022;-72
2021/09/29 08:45:08;;;;;;;131.00;31.48;;;;;;;15.72;75.57;100339.88;5031607;28;20064;-71
2021/09/29 08:47:41;;;;;;;82.03;28.75;;;;;;;15.88;74.94;100335.56;5027527;28;20025;-71
2021/09/29 08:50:19;;;;;;;45.10;28.52;;;;;;;15.88;74.90;100341.22;5026560;28;20025;-71
2021/09/29 08:52:55;;;;;;;42.33;27.90;;;;;;;15.74;75.34;100342.38;5028170;28;20033;-71
2021/09/29 09:14:43;;;;;;;43.65;29.63;;;;;;;15.79;76.01;100339.31;5028416;28;20032;-71
2021/09/29 09:15:08;;;;;;;20.65;15.15;;;;;;;15.83;74.08;100345.09;5029510;28;20507;-70
2021/09/29 09:17:36;;;;;;;22.58;16.55;;;;;;;15.69;73.53;100339.78;5025674;28;20104;-70
2021/09/29 09:20:15;;;;;;;29.10;15.45;;;;;;;15.84;73.96;100346.72;5032299;28;20014;-70
2021/09/29 09:22:40;;;;;;;18.05;14.32;;;;;;;15.96;73.38;100348.78;5032167;28;20033;-71
2021/09/29 09:25:07;;;;;;;19.83;14.95;;;;;;;15.84;73.39;100341.91;5032468;28;20033;-72
2021/09/29 09:27:47;;;;;;;18.67;12.65;;;;;;;15.79;73.32;100344.94;5032499;28;20021;-69
2021/09/29 09:30:34;;;;;;;16.95;11.65;;;;;;;15.85;72.96;100349.22;5031994;28;20025;-70
2021/09/29 09:33:01;;;;;;;18.23;12.85;;;;;;;15.93;73.26;100352.31;5032101;28;20076;-69
2021/09/29 09:35:40;;;;;;;19.23;14.15;;;;;;;15.75;73.90;100355.28;5026446;28;20384;-70
2021/09/29 09:38:20;;;;;;;16.33;13.32;;;;;;;15.73;73.77;100355.63;5027461;28;20389;-70
2021/09/29 09:40:53;;;;;;;16.00;14.18;;;;;;;15.70;74.06;100359.16;5028258;28;20053;-73
2021/09/29 09:43:22;;;;;;;22.08;14.40;;;;;;;15.75;73.62;100360.09;5030373;28;20115;-70
2021/09/29 09:45:48;;;;;;;18.95;16.02;;;;;;;15.70;73.87;100358.34;5027229;28;20029;-70
2021/09/29 09:48:26;;;;;;;21.40;15.48;;;;;;;15.76;74.60;100362.59;5019889;28;20025;-72
2021/09/29 09:51:13;;;;;;;19.02;16.17;;;;;;;15.66;74.20;100357.38;5028829;28;20030;-70
2021/09/29 09:53:39;;;;;;;29.63;17.83;;;;;;;15.75;74.46;100358.13;5030451;28;20052;-70
2021/09/29 09:56:32;;;;;;;19.98;15.30;;;;;;;15.72;72.90;100356.00;5032066;28;20029;-70
2021/09/29 09:58:57;;;;;;;31.70;16.90;;;;;;;15.76;73.04;100358.94;5027931;28;20405;-69
2021/09/29 10:01:29;;;;;;;21.10;16.83;;;;;;;15.84;73.40;100363.66;5031442;28;20033;-70
2021/09/29 10:03:55;;;;;;;27.27;19.23;;;;;;;15.73;73.12;100355.63;5032080;28;20029;-70
2021/09/29 10:06:22;;;;;;;25.15;17.42;;;;;;;15.75;73.82;100362.91;5031881;28;20479;-70
2021/09/29 10:09:01;;;;;;;30.48;16.52;;;;;;;15.65;74.23;100367.84;5026898;28;20025;-70
2021/09/29 10:11:31;;;;;;;24.13;16.35;;;;;;;15.78;73.94;100371.50;5022371;28;20094;-69
2021/09/29 10:27:58;;;;;;;18.27;11.52;;;;;;;15.82;72.61;100364.03;5025192;28;20095;-71
2021/09/29 10:30:51;;;;;;;13.60;11.30;;;;;;;15.81;72.28;100359.56;5021353;28;20025;-71
2021/09/29 10:33:25;;;;;;;16.92;12.40;;;;;;;15.74;72.65;100362.13;5022062;28;20021;-72
2021/09/29 10:44:07;;;;;;;12.13;10.80;;;;;;;16.12;71.03;100354.56;5010017;28;20452;-72
2021/09/29 10:46:44;;;;;;;31.10;13.43;;;;;;;15.99;72.07;100348.09;5016246;28;20030;-71
2021/09/29 11:30:36;;;;;;;;;;;;;;;16.22;70.94;100317.41;5034871;28;20038;-71
2021/09/29 12:11:14;;;;;;;25.70;17.50;;;;;;;16.59;68.73;100301.59;5033585;28;20427;-70
2021/09/29 12:13:45;;;;;;;27.67;19.02;;;;;;;16.56;68.85;100303.97;5033235;28;20036;-73
2021/09/29 12:16:11;;;;;;;20.80;15.43;;;;;;;16.52;69.08;100313.50;5032274;28;20036;-71
2021/09/29 12:18:37;;;;;;;25.58;17.75;;;;;;;16.56;68.84;100311.63;5029097;28;20464;-71
2021/09/29 12:21:03;;;;;;;21.63;16.98;;;;;;;16.56;68.45;100311.63;5032994;28;20041;-71
2021/09/29 12:23:29;;;;;;;22.38;16.60;;;;;;;16.58;68.52;100306.44;5032207;28;20033;-70
2021/09/29 12:26:19;;;;;;;23.00;15.98;;;;;;;16.56;68.74;100314.44;5030195;28;20051;-72
2021/09/29 12:29:09;;;;;;;22.13;18.08;;;;;;;16.50;68.65;100307.38;5032954;28;20037;-73
2021/09/29 12:35:02;;;;;;;20.48;17.30;;;;;;;16.53;68.71;100303.84;4970257;28;20075;-73
2021/09/29 12:37:28;;;;;;;24.98;17.15;;;;;;;16.55;68.60;100307.97;5026914;28;20412;-71
2021/09/29 12:39:57;;;;;;;27.20;17.48;;;;;;;16.64;68.57;100299.34;5031480;28;20033;-71
2021/09/29 12:42:35;;;;;;;22.23;16.92;;;;;;;16.66;68.27;100305.50;5030115;28;20038;-70
2021/09/29 12:45:00;;;;;;;23.75;19.55;;;;;;;16.60;68.22;100304.06;5023940;28;20033;-70
2021/09/29 12:49:57;;;;;;;23.60;17.70;;;;;;;16.50;68.03;100313.03;5025299;28;20029;-70
2021/09/29 12:52:32;;;;;;;25.50;18.63;;;;;;;16.57;68.09;100310.44;5018201;28;20048;-70
2021/09/29 12:54:59;;;;;;;29.60;17.67;;;;;;;16.49;68.08;100302.91;5022600;28;20104;-70
2021/09/29 12:57:28;;;;;;;21.55;15.80;;;;;;;16.51;68.48;100312.69;5027619;28;20122;-70
2021/09/29 12:59:55;;;;;;;23.52;17.90;;;;;;;16.51;68.47;100300.56;5027968;28;20521;-70
2021/09/29 13:02:21;;;;;;;24.52;18.42;;;;;;;16.53;68.46;100304.69;5025205;28;20108;-70
2021/09/29 13:04:47;;;;;;;21.70;17.30;;;;;;;16.52;69.20;100303.03;5031520;28;20038;-70
2021/09/29 13:07:12;;;;;;;30.20;19.52;;;;;;;16.49;69.63;100297.28;5031910;28;20033;-70
2021/09/29 13:09:38;;;;;;;29.17;18.17;;;;;;;16.45;69.49;100296.34;5031274;28;20037;-70
2021/09/29 13:12:04;;;;;;;24.52;17.08;;;;;;;16.48;68.57;100301.28;5032361;28;20045;-70
2021/09/29 13:14:31;;;;;;;18.88;15.88;;;;;;;16.51;68.69;100297.72;5030994;28;20140;-70
2021/09/29 13:16:56;;;;;;;19.88;16.17;;;;;;;16.58;68.57;100297.97;5025822;28;20029;-70
2021/09/29 13:19:29;;;;;;;24.33;16.92;;;;;;;16.64;68.29;100292.91;5026212;28;20116;-70
2021/09/29 13:21:57;;;;;;;21.38;16.55;;;;;;;16.72;68.37;100299.59;5016340;28;20500;-70
2021/09/29 13:24:54;;;;;;;26.33;17.05;;;;;;;16.72;68.33;100296.75;5026761;28;20036;-70
2021/09/29 13:38:16;;;;;;;22.98;16.48;;;;;;;16.79;67.31;100285.69;5029503;28;20037;-70
2021/09/29 13:40:43;;;;;;;21.58;16.10;;;;;;;16.73;67.74;100292.75;5029277;28;20523;-70
2021/09/29 13:43:10;;;;;;;21.85;17.38;;;;;;;16.70;68.33;100297.94;5021297;28;20583;-69
2021/09/29 13:45:36;;;;;;;28.38;16.35;;;;;;;16.73;68.49;100295.56;5021618;28;20037;-69
2021/09/29 13:48:02;;;;;;;23.15;16.50;;;;;;;16.80;68.45;100293.78;5021165;28;20029;-71
2021/09/29 13:50:28;;;;;;;25.08;17.08;;;;;;;16.75;68.14;100291.22;5031657;28;20368;-71
2021/09/29 13:52:53;;;;;;;24.33;17.48;;;;;;;16.76;68.36;100290.03;5023364;28;20021;-71